KTNU/TNU METAR and TAF weather

Enter ICAO airport designator
Station Type Date Time Source
KTNU METAR 2019/10/23 07:55 UTC NOAA

KTNU 230755Z AUTO 00000KT 10SM CLR 03/00 A2984 RMK A01


Station Type Date Time Source
KTNU Decoded METAR 2019/10/23 07:55 UTC NOAA

Newton Municipal, IA, United States (KTNU) 41-41N 093-01W
Oct 23, 2019 - 03:55 AM EDT / 2019.10.23 0755 UTC
Wind: Calm:0
Visibility: 10 mile(s):0
Sky conditions: clear
Temperature: 37 F (3 C)
Dew Point: 32 F (0 C)
Relative Humidity: 80%
Pressure (altimeter): 29.84 in. Hg (1010 hPa)
ob: KTNU 230755Z AUTO 00000KT 10SM CLR 03/00 A2984 RMK A01
cycle: 8

Station Type Date Time Source
KTNU TAF UTC NOAA

Error!

Example: see airport list